Aviation Digital Data Service (ADDS)

Output produced by METARs form (0500 UTC 19 February 2019)
found at http://www.aviationweather.gov/metar/data/
 
Forecast for: LIPZ (VENEZIA/TESSERA , IT)
Text: TAF LIPZ 182300Z 1900/2006 VRB04KT 0200 FG OVC001
Forecast period: 0000 UTC 19 February 2019 to 0600 UTC 20 February 2019
Forecast type: FROM: standard forecast or significant change
Winds: variable direction winds at 5 MPH (4 knots; 2.1 m/s)
Visibility: 0.12 miles (0.19 km)
Ceiling: 100 feet AGL
Clouds: overcast cloud deck at 100 feet AGL
Weather: FG  (fog)
Text: TEMPO 1911/1915 0800 FG
Forecast period: 1100 to 1500 UTC 19 February 2019
Forecast type: TEMPORARY: The following changes expected for less than half the time period
Visibility: 0.50 miles (0.80 km)
Ceiling: unknown
Clouds: missing
Weather: FG  (fog)